Fábio Alves

Chief Scout - Juventude
16 Sep 2027
Thursday
Process

Personality

Adaptability (1) Ambition (3) Controversy (9) Loyalty (7) Pressure (1) Professionalism (13) Sportsmanship (19) Temperament (1)

Profile

Coaching Style Democratic
License Continental B
Determination 4
Man Management 9
Motivating 9
Discipline 4
Job Satisfaction
100%
Fatigue
0%
Role Chief Scout
Wage 86.8K p/w
Contract 14.03.2029

Performance

Behaviour Good
Training Effectiveness
34%
Player Development
50%
Injury Prevention
55%
Tactical Implementation
25%

Recent Events

Attended a recruitment meeting now
Attended a recruitment meeting now
Attended a recruitment meeting now
Recommended a transfer target now
Recommended a transfer target now
Recommended a transfer target now
Recommended a transfer target now
Attended a recruitment meeting now

Currently Monitoring

168
Player Club Status Ability Confidence Watched Last Observed Latest Vote
Adalberto Peñaranda Deportivo Tachira Active 123 / 112 40% 1 15.09.2027 -
Jonathan Cañete Portuguesa Active 103 / 113 40% 1 15.09.2027 -
Rafael Navarro St. Louis CITY SC Active 134 / 126 40% 2 13.09.2027 -
Santiago Sala Güemes Active 122 / 109 40% 1 13.09.2027 -
Juan Rodríguez Wanderers Active 87 / 110 40% 1 13.09.2027 -
Luis Vidal Deportivo Pereira Active 79 / 87 40% 1 13.09.2027 -
Tiziano Dornell Danubio Active 106 / 124 40% 1 11.09.2027 -
Enzo Cabrera Danubio Active 108 / 115 40% 1 11.09.2027 -
Matías Sosa Arsenal Active 111 / 115 40% 1 10.09.2027 -
Jorge Obregón Deportivo Pasto Active 114 / 107 40% 1 10.09.2027 -
Mateo Silvetti Los Angeles Football Club Active 143 / 120 40% 3 09.09.2027 -
Francisco Rincon Llaneros Active 102 / 98 40% 1 09.09.2027 -
Sebastián Cocimano Nueva Chicago Active 119 / 115 40% 1 09.09.2027 -
Luca Langoni Colorado Rapids Active 118 / 131 40% 1 09.09.2027 -
Gianluca Pugliese Güemes Active 107 / 114 40% 1 08.09.2027 -
Leonardo Campana New England Revolution Active 147 / 121 40% 1 08.09.2027 -
Alejo Cruz Juventud Active 117 / 123 40% 1 07.09.2027 -
Alex Amaefula Kun Khalifat Active 95 / 89 40% 1 06.09.2027 -
Joel Ezra Enyimba Active 106 / 94 40% 1 04.09.2027 -
Juan Román Gimenez Estudiantes Active 88 / 98 40% 2 30.08.2027 -
Luis Otávio Colorado Rapids Active 125 / 113 40% 1 30.08.2027 -
Luke Baartman ES Mostaganem Active 120 / 120 40% 2 29.08.2027 -
Esteban de Lima Tacuarembo Active 93 / 100 40% 2 29.08.2027 -
Maren Kefas Plateau United Active 89 / 95 40% 2 28.08.2027 -
Mustapha Umar Kano Pillars Active 94 / 92 40% 1 28.08.2027 -
Daniel Awuni Aduana Stars Active 107 / 107 40% 1 27.08.2027 -
Manuel Kissanga Fortuna Mfou Active 89 / 98 40% 1 27.08.2027 -
Lucas Camejo River Plate Active 75 / 91 40% 2 24.08.2027 -
Rasco Abassah Bechem United Active 81 / 74 40% 2 24.08.2027 -
Ibrahim Sabiu Bendel Insurance Active 88 / 90 40% 2 23.08.2027 -
Francisco Triver River Plate Active 84 / 103 40% 1 22.08.2027 -
Chinedu Nwosu Bendel Insurance Active 73 / 89 40% 1 22.08.2027 -
Diogo Guzmán Montevideo City Torque Active 115 / 115 40% 2 20.08.2027 -
Daniel Ferraresi Llaneros Active 81 / 81 40% 1 20.08.2027 -
Mamoutou Berthé US Bougouba Active 99 / 113 40% 1 19.08.2027 -
Ishmael Addo Heart of Lions Active 103 / 89 40% 1 18.08.2027 -
Davide Bartesaghi AC Milan Active 139 / 147 40% 2 17.08.2027 -
Rodrigo Mora AS Roma Active 126 / 144 40% 1 17.08.2027 -
Mateo Peralta Danubio Active 115 / 124 40% 1 15.08.2027 -
Sascha Britschgi Padova Active 128 / 132 40% 3 12.08.2027 -
Mattia Rutigliano Pro Vercelli Active 90 / 104 40% 1 12.08.2027 -
Lucas Duré Montevideo City Torque Active 97 / 109 40% 1 11.08.2027 -
João Abreu Porto Active 103 / 111 40% 1 09.08.2027 -
Leo Castledine Middlesbrough Active 122 / 131 40% 1 09.08.2027 -
Zane Albarus Cambridge United Active 101 / 103 40% 2 06.08.2027 -
Rayan Demirci Porto Active 103 / 97 40% 1 06.08.2027 -
Leandro Martins Benfica Active 101 / 109 40% 3 05.08.2027 -
Paulo Cardoso Sporting CP Active 92 / 109 40% 1 05.08.2027 -
Tomás Peixoto Porto Active 77 / 94 40% 1 04.08.2027 -
Francisco Fernandes Porto Active 101 / 108 40% 1 04.08.2027 -
Oscar Schwartau Norwich City Active 122 / 138 40% 1 03.08.2027 -
Finley McAllister Grimsby Town Active 93 / 100 40% 1 03.08.2027 -
João Dalla Corte Internacional Active 98 / 104 55% 1 05.07.2027 -
Hwang Hee-Chan Wolverhampton Active 149 / 138 40% 1 28.06.2027 -
Joel McGregor Swindon Town Active 79 / 99 40% 4 16.06.2027 -
Keagan Tau Ajax Cape Town Active 81 / 108 40% 1 16.06.2027 -
Víctor Guzmán Sporting CP Active 83 / 98 40% 1 07.06.2027 -
Mathis Jangeal Famalicao Negotiating 117 / 114 40% 1 07.06.2027 -
Yuri Alberto Köln Negotiating 140 / 141 67% 1 01.06.2027 Approve
Dion Beljo Standard Liege Negotiating 131 / 132 66% 1 01.06.2027 Approve
João Fonseca Benfica Active 117 / 109 40% 1 31.05.2027 -
Josh Smith Accrington Stanley Active 74 / 92 40% 2 30.05.2027 -
Christos Mouzakitis Hull City Active 131 / 143 40% 2 29.05.2027 -
Yussif Saidu Zaragoza Active 107 / 120 40% 2 29.05.2027 -
Gonçalo Oliveira Benfica Active 127 / 107 40% 3 28.05.2027 -
Rafael Quintas Benfica Active 97 / 94 40% 1 28.05.2027 -
Simone Kosijer Triestina Active 95 / 100 40% 1 27.05.2027 -
Daniel Costa Sporting CP Active 104 / 108 40% 1 27.05.2027 -
Daniel Vernattus Metalist Active 106 / 96 40% 2 26.05.2027 -
Pietro Reggiori Pro Patria Active 102 / 90 40% 1 26.05.2027 -
Adam Bakoune Ospitaletto Active 83 / 97 40% 3 25.05.2027 -
Darryl Bakola Padova Active 97 / 123 40% 1 25.05.2027 -
Martim Cunha Porto Active 110 / 108 40% 1 23.05.2027 -
Dylan Lawlor Cardiff City Active 123 / 116 40% 3 19.05.2027 -
Juan Giménez Celta Active 100 / 125 40% 2 17.05.2027 Needs More Info
Caleb Yirenkyi Coventry City Active 150 / 135 40% 1 16.05.2027 -
Daniel Kelly Oxford United Active 114 / 121 40% 1 13.05.2027 -
Jofre Torrents Ajax Active 111 / 135 40% 2 10.05.2027 -
Josh King Chelsea Active 130 / 144 40% 1 09.05.2027 -
Ernie Weaver AFC Wimbledon Active 111 / 118 40% 2 04.05.2027 -
Kevin Pinto Benfica Active 100 / 105 40% 1 04.05.2027 -
Matías Gómez Granada Active 114 / 112 40% 1 30.04.2027 -
Kazunari Kita Real Sociedad Active 84 / 95 40% 1 28.04.2027 -
Toni Tamarit Alverca Active 129 / 130 40% 1 25.04.2027 -
Salvador Blopá Casa Pia Active 115 / 123 40% 1 22.04.2027 Needs More Info
Martim Fernandes Porto Active 126 / 136 40% 3 21.04.2027 -
Cheveyo Tsawa Club Brugge Active 133 / 123 40% 1 16.04.2027 -
Rayhan Momade Sporting CP Active 99 / 90 40% 1 14.04.2027 -
Ibrahim Maza Bayer Leverkusen Active 137 / 153 40% 1 14.04.2027 -
João Capucho Benfica Active 89 / 106 40% 1 13.04.2027 -
Tomás Cruz Benfica Active 94 / 107 40% 1 15.12.2026 -
Amar Memić Casa Pia Negotiating 127 / 128 62% 1 01.12.2026 Approve
Andreas Trimmel Red Bull Salzburg Active 131 / 131 60% 1 01.12.2026 Approve
Pau Víctor AVS Active 127 / 138 40% 2 29.11.2026 -
Ole Pohlmann Rio Ave Active 140 / 124 40% 3 29.11.2026 -
Everton Bala Levski Active 120 / 119 40% 1 29.11.2026 -
Manu Pozo Torreense Active 118 / 116 40% 2 27.11.2026 -
Arjan Malić Sturm Graz Active 112 / 115 40% 1 26.11.2026 -
Dinis Rodrigues Porto Active 104 / 100 40% 1 26.11.2026 -
Luis Mina Vizela Active 114 / 114 40% 1 25.11.2026 -
Ianis Stoica Estrela da Amadora Active 117 / 109 40% 2 22.11.2026 -
Alfonso Trezza Arouca Active 136 / 111 40% 1 22.11.2026 -
Yanis Begraoui Estoril Praia Active 137 / 125 40% 4 21.11.2026 -
Taichi Fukui Arouca Active 132 / 134 40% 2 21.11.2026 -
Martín Tejón Maritimo Active 98 / 112 40% 1 19.11.2026 -
Dawda Camara Alverca Active 130 / 119 40% 1 18.11.2026 -
Adnan Courtois KV Oostende Active 119 / 137 40% 1 18.11.2026 -
Víctor Gómez Braga Active 153 / 141 40% 2 15.11.2026 -
Lee Hyun-Ju Arouca Active 135 / 125 40% 1 15.11.2026 -
Figueiredo Alverca Active 120 / 126 40% 7 14.11.2026 -
Ricard Sánchez Estoril Praia Active 114 / 124 40% 2 14.11.2026 -
Lucas Duarte Felgueiras Active 104 / 112 40% 1 14.11.2026 -
Luis Quintero Torreense Active 122 / 128 40% 2 13.11.2026 -
Dylan Nandín Arouca Active 108 / 113 40% 2 12.11.2026 -
Manfred Ugalde Spartak Moscow Active 127 / 131 40% 1 12.11.2026 -
Agustín Módica Gimnasia y Esgrima Active 117 / 116 40% 1 11.11.2026 -
Roberto Fernández Braga Active 147 / 150 40% 2 09.11.2026 Needs More Info
Ozziel Herrera Tigres Active 124 / 136 40% 1 09.11.2026 -
Zé Leite Leixões Active 110 / 116 40% 2 08.11.2026 -
Santi García Gil Vicente Active 140 / 140 40% 4 07.11.2026 -
João Mendes Vitoria Guimaraes Active 111 / 121 40% 1 07.11.2026 -
William Gomes Porto Active 149 / 153 40% 2 05.11.2026 -
André Lacximicant Estoril Praia Active 94 / 121 40% 1 05.11.2026 -
Henry Mosquera Bragantino Active 125 / 124 40% 2 02.11.2026 Needs More Info
Lorougnon Gohi Académico de Viseu Active 119 / 110 40% 1 02.11.2026 Needs More Info
Léo Teixeira Felgueiras Active 114 / 98 40% 1 01.11.2026 -
Bruno Ramos Sporting CP Active 115 / 120 40% 1 31.10.2026 -
Bryan Limbombe Maritimo Active 107 / 120 40% 1 29.10.2026 -
Marcos Peña Famalicao Active 101 / 125 40% 1 28.10.2026 -
Chiheb Labidi Nacional Active 132 / 109 40% 3 27.10.2026 -
José Neto Moreirense Active 113 / 111 40% 2 26.10.2026 -
Kevin Vazquez Cruz Azul Active 138 / 129 40% 1 26.10.2026 -
Álvaro Barreal Santos Active 142 / 126 40% 1 24.10.2026 -
Rafik Guitane Estoril Praia Active 127 / 131 40% 1 23.10.2026 -
Jalen Blesa Rio Ave Active 116 / 109 40% 3 22.10.2026 -
Nabil Touaizi Alverca Active 117 / 119 40% 1 21.10.2026 -
Eric Ramires Bragantino Active 140 / 131 40% 2 19.10.2026 Needs More Info
Andrés Gómez Vasco da Gama Active 141 / 134 40% 2 19.10.2026 -
João Teixeira Porto Active 98 / 122 40% 1 19.10.2026 -
Razvan Balasa Crvena Zvezda Active 146 / 136 40% 1 16.10.2026 -
Naïs Djouahra Arouca Active 131 / 119 40% 1 13.10.2026 -
Nuno Moreira Vasco da Gama Active 142 / 138 40% 2 12.10.2026 -
Pedro Bondo Famalicao Active 109 / 131 40% 1 12.10.2026 -
Juanda Fuentes Penafiel Active 106 / 98 40% 1 12.10.2026 -
Valery Académico de Viseu Active 136 / 109 40% 2 10.10.2026 -
Negueba Mirassol Active 120 / 122 40% 2 10.10.2026 -
Vangelis Pavlidis Twente Active 159 / 159 40% 1 08.10.2026 -
Juan María Alcedo Torreense Active 128 / 104 40% 1 05.10.2026 -
Daniel Júnior Nacional Active 118 / 106 40% 1 04.10.2026 -
Matheuzinho Corinthians Active 138 / 120 40% 1 03.10.2026 -
Gabri Martínez Braga Active 127 / 129 40% 1 01.10.2026 -
MT Santa Clara Active 130 / 126 40% 2 27.09.2026 -
Tony Strata Vitoria Guimaraes Active 108 / 116 40% 1 26.09.2026 -
Luis Sinisterra Cruzeiro Active 137 / 132 40% 1 26.09.2026 -
Vinicinho Bragantino Active 131 / 129 40% 2 25.09.2026 -
Alan Lescano Argentinos Juniors Active 129 / 128 40% 2 23.09.2026 -
Jordan van der Gaag Leiria Active 125 / 115 40% 1 18.09.2026 -
Soma Anzai FC Tokyo Active 122 / 119 40% 1 17.09.2026 -
Caio Alexandre Bahia Active 146 / 134 40% 1 15.09.2026 -
Rémi Lemoine Chamois Niortais Active 157 / 147 40% 1 10.09.2026 -
Facundo Cáseres Gil Vicente Active 116 / 118 40% 1 09.09.2026 -
Victor Froholdt Porto Active 145 / 149 40% 1 08.09.2026 -
Óscar Rivas Vitoria Guimaraes Active 122 / 107 40% 1 05.08.2026 -
Sikou Niakaté Braga Active 143 / 147 40% 1 04.08.2026 -
Javi Sánchez Arouca Active 134 / 141 40% 1 04.08.2026 -
Tidjany Touré Gil Vicente Active 106 / 114 40% 1 02.08.2026 -
Weverson Gil Vicente Active 102 / 120 40% 1 01.08.2026 -
Makan Aïko Tondela Active 104 / 123 40% 1 01.08.2026 -